Athol, Pennsylvania
Current Conditions -  °F | °C
As of 1:54 PM on Saturday 25 Oct 2014 (Local Time) from KPTW Reporting Station
Few Clouds Few Clouds  
Wind Chill: 19°   Ceiling: Unl
Heat Index: 19°   Visibility: 10mi
Dew Point:   Wind: 10mph
Humidity: 43%   Direction: 240°WSW
Pressure: 29.79"   Gusts: 20mph
Location:  40.3194°N, 75.7364°W
Report Text: KPTW 251754Z AUTO 24009G17KT 10SM FEW055 19/06 A2979 RMK AO2 SLP084 T01890061 10189 20044 58037
Loading
Personal Weather Stations






























Interactive Weather Map New forecast layout! Learn more

10-Day Weather Forecast

Advertisements
Track Severe Weather on mobile